Saint Louis, Missouri
Traffic Map
Current Weather Conditions
Saint Louis, Missouri
Clear
Clear
82°
Feels Like: 87°
Wind Chill: 82° Ceiling: Unl
Heat Index: 87° Visibility: 10mi
Dew Point: 72° Wind: 3mph
Humidity: 71% Direction: 130° (SE)
Pressure: 30.11in Gusts: 0mph
Raw Report DataKCPS 290153Z 13003KT 10SM CLR 28/22 A3011 RMK AO2 SLP191 T02780222
Traffic Incident Summary
Active as of:
Severity:
Category:
InformationThere was an issue retrieving the traffic information for this location. Please try a different location or try again shortly.
Advertisements
Track Severe Weather on mobile